University of Illinois Willard Airport
KCMI : now visible

Airfield :











YOU CAN JOIN US ON...

 
LOGIN :

Register | Disclaimer

   EN    FR    IT 

 









Legend :    VFR   Marginal VFR   IFR   Intensive IFR   Very Intensive IFR
Visi :
Ceiling :
>= 8 km
>= 3000ft
5 to 8 km
1000 to 3000 ft
1500m to 5 km
500 to 1000 ft
800 to 1500m
200 to 500 ft
< 800m
< 200 ft
Symbols :   Thunderstorms  Fog  Heavy snow  Heavy precipitations  Wind > 20 kt






- Airport Elevation : 755 ft
- IATA code : CMI


KCMI - University of Illinois Willard

CURRENT METAR :
  • 280453Z AUTO 16007KT 10SM SCT011 BKN065 20/19 A2994 RMK AO2 SLP132 T02000189

EXPIRED METARs :
  • 280353Z AUTO 15007KT 10SM OVC011 21/19 A2994 RMK AO2 SLP132 T02060189
  • 280253Z AUTO 13007KT 10SM FEW012 FEW110 21/19 A2993 RMK AO2 SLP129 T02060189 53006
  • 280221Z AUTO 14010KT 10SM SCT025 21/19 A2992 RMK AO2 T02110189

TAF KCMI
Valid from the 28 at 00:00 until the 29 at 00:00 UTC


280001Z 2800/2824 16009KT P6SM SCT012 OVC025
FM280800 16005KT 4SM BR OVC007
FM281200 18008KT P6SM BKN025
FM281500 22011KT P6SM VCSH SCT025 BKN120
KZAU FIR / North America



MET'MAP, your aeronautical weather chart ! - Copyright ORBIFLY December 2007 - Disclaimer

ORBIFLY MET'MAP TEAM :

Programming & Development : Alexandra Zaïnal
Concept & original design : Baudouin d'Aumeries
Assistance for programming : Marc-Olivier Méhu
Technical & hardware support : Manuel Goepfert

Contact : metmap@orbifly.com




SOURCES & CREDITS :

   NOAA       Earth
Advisory